createdAt,value
2023-03-20T00:01:16.382Z,5.25
2023-03-20T00:03:43.132Z,5.53
2023-03-20T00:06:18.374Z,5.50
2023-03-20T00:08:47.174Z,5.07
2023-03-20T00:11:31.136Z,4.93
2023-03-20T00:14:07.099Z,5.95
2023-03-20T00:16:36.973Z,5.40
2023-03-20T00:19:05.106Z,5.30
2023-03-20T00:21:32.620Z,5.35
2023-03-20T00:24:00.532Z,5.13
2023-03-20T00:26:34.764Z,5.53
2023-03-20T00:29:03.943Z,5.70
2023-03-20T00:31:33.382Z,4.70
2023-03-20T00:34:02.404Z,5.05
2023-03-20T00:36:29.497Z,5.05
2023-03-20T00:38:59.351Z,4.82
2023-03-20T00:41:32.690Z,5.90
2023-03-20T00:44:22.398Z,5.47
2023-03-20T00:47:01.549Z,5.40
2023-03-20T00:49:30.790Z,5.10
2023-03-20T00:51:58.042Z,5.75
2023-03-20T00:54:24.885Z,6.05
2023-03-20T00:57:19.950Z,5.75
2023-03-20T00:59:56.340Z,5.85
2023-03-20T01:02:28.947Z,5.47
2023-03-20T01:04:55.982Z,5.63
2023-03-20T01:07:22.518Z,6.05
2023-03-20T01:09:48.964Z,5.88
2023-03-20T01:12:16.364Z,6.63
2023-03-20T01:14:43.759Z,6.13
2023-03-20T01:17:23.066Z,7.00
2023-03-20T01:19:49.874Z,6.70
2023-03-20T01:22:18.096Z,6.63
2023-03-20T01:24:44.807Z,6.60
2023-03-20T01:27:16.965Z,8.13
2023-03-20T01:29:44.298Z,7.65
2023-03-20T01:32:13.912Z,8.75
2023-03-20T01:34:40.774Z,8.20
2023-03-20T01:37:14.088Z,9.57
2023-03-20T01:39:41.029Z,9.63
2023-03-20T01:42:08.075Z,10.68
2023-03-20T01:44:36.441Z,10.75
2023-03-20T01:47:14.886Z,10.98
2023-03-20T01:50:00.406Z,11.90
2023-03-20T01:52:27.269Z,11.68
2023-03-20T01:54:53.747Z,12.82
2023-03-20T01:57:25.666Z,13.55
2023-03-20T02:00:03.804Z,15.50
2023-03-20T02:02:44.037Z,15.90
2023-03-20T02:05:17.670Z,15.38
2023-03-20T02:07:49.978Z,16.73
2023-03-20T02:10:18.979Z,15.85
2023-03-20T02:12:52.885Z,16.70
2023-03-20T02:15:29.788Z,16.90
2023-03-20T02:18:14.025Z,16.88
2023-03-20T02:21:03.535Z,17.42
2023-03-20T02:23:53.045Z,18.55
2023-03-20T02:26:40.676Z,18.00
2023-03-20T02:29:36.645Z,18.90
2023-03-20T02:32:18.757Z,19.02
2023-03-20T02:35:01.254Z,18.83
2023-03-20T02:37:27.715Z,19.13
2023-03-20T02:40:16.071Z,19.73
2023-03-20T02:43:10.926Z,20.52
2023-03-20T02:46:14.196Z,20.63
2023-03-20T02:48:58.028Z,20.83
2023-03-20T02:51:36.380Z,20.30
2023-03-20T02:54:21.735Z,21.10
2023-03-20T02:57:16.445Z,21.35
2023-03-20T02:59:55.612Z,21.23
2023-03-20T03:02:34.639Z,20.38
2023-03-20T03:05:05.474Z,20.13
2023-03-20T03:07:34.738Z,20.33
2023-03-20T03:10:11.583Z,21.13
2023-03-20T03:12:43.278Z,20.27
2023-03-20T03:15:22.893Z,20.25
2023-03-20T03:17:49.792Z,21.15
2023-03-20T03:20:24.510Z,20.42
2023-03-20T03:22:51.398Z,20.15
2023-03-20T03:25:18.164Z,21.25
2023-03-20T03:27:53.198Z,22.23
2023-03-20T03:30:29.842Z,21.27
2023-03-20T03:33:23.067Z,21.33
2023-03-20T03:35:51.423Z,20.92
2023-03-20T03:38:37.985Z,21.20
2023-03-20T03:41:28.464Z,21.00
2023-03-20T03:44:18.236Z,20.40
2023-03-20T03:46:53.766Z,19.80
2023-03-20T03:49:29.060Z,20.17
2023-03-20T03:52:00.629Z,19.23
2023-03-20T03:54:34.558Z,20.77
2023-03-20T03:57:27.862Z,19.15
2023-03-20T03:59:57.229Z,18.85
2023-03-20T04:02:24.164Z,17.17
2023-03-20T04:04:53.098Z,15.23
2023-03-20T04:07:20.458Z,15.40
2023-03-20T04:09:47.212Z,16.20
2023-03-20T04:12:38.210Z,16.17
2023-03-20T04:15:09.586Z,16.05
2023-03-20T04:17:36.493Z,15.30
2023-03-20T04:20:05.009Z,15.02
2023-03-20T04:22:34.695Z,14.57
2023-03-20T04:25:17.445Z,14.73
2023-03-20T04:27:43.945Z,15.05
2023-03-20T04:30:18.734Z,14.30
2023-03-20T04:33:04.149Z,15.27
2023-03-20T04:35:42.754Z,14.10
2023-03-20T04:38:12.928Z,13.93
2023-03-20T04:40:39.945Z,12.93
2023-03-20T04:43:06.581Z,14.15
2023-03-20T04:45:33.830Z,13.40
2023-03-20T04:48:01.901Z,12.68
2023-03-20T04:50:29.306Z,12.88
2023-03-20T04:52:56.083Z,12.68
2023-03-20T04:55:22.891Z,13.10
2023-03-20T04:57:50.662Z,13.30
2023-03-20T05:00:18.433Z,12.00
2023-03-20T05:02:45.531Z,13.38
2023-03-20T05:05:12.040Z,12.68
2023-03-20T05:07:38.563Z,13.20
2023-03-20T05:10:09.132Z,12.35
2023-03-20T05:12:44.745Z,12.93
2023-03-20T05:15:29.825Z,13.32
2023-03-20T05:18:14.774Z,12.70
2023-03-20T05:20:52.991Z,13.27
2023-03-20T05:23:27.214Z,12.95
2023-03-20T05:26:12.481Z,13.88
2023-03-20T05:29:05.756Z,13.25
2023-03-20T05:31:43.142Z,13.38
2023-03-20T05:34:18.109Z,13.25
2023-03-20T05:36:54.446Z,14.93
2023-03-20T05:39:46.684Z,14.82
2023-03-20T05:42:26.642Z,14.70
2023-03-20T05:45:10.252Z,14.43
2023-03-20T05:48:02.689Z,14.45
2023-03-20T05:50:40.933Z,14.55
2023-03-20T05:53:27.776Z,14.52
2023-03-20T05:55:54.286Z,13.23
2023-03-20T05:58:50.074Z,14.65
2023-03-20T06:01:31.222Z,13.63
2023-03-20T06:04:08.447Z,14.20
2023-03-20T06:06:59.397Z,13.38
2023-03-20T06:09:26.637Z,13.82
2023-03-20T06:11:53.655Z,14.00
2023-03-20T06:14:21.011Z,13.65
2023-03-20T06:16:55.256Z,13.02
2023-03-20T06:19:22.130Z,14.23
2023-03-20T06:21:49.934Z,13.18
2023-03-20T06:24:19.219Z,13.85
2023-03-20T06:26:45.990Z,12.43
2023-03-20T06:29:13.560Z,12.45
2023-03-20T06:31:40.348Z,12.35
2023-03-20T06:34:11.364Z,12.90
2023-03-20T06:36:45.241Z,11.57
2023-03-20T06:39:17.792Z,13.00
2023-03-20T06:41:44.267Z,12.90
2023-03-20T06:44:11.140Z,12.73
2023-03-20T06:46:56.554Z,12.38
2023-03-20T06:49:23.211Z,12.80
2023-03-20T06:51:50.661Z,12.35
2023-03-20T06:54:23.652Z,13.00
2023-03-20T06:56:51.500Z,14.20
2023-03-20T06:59:18.378Z,13.38
2023-03-20T07:01:45.542Z,12.50
2023-03-20T07:04:12.748Z,12.30
2023-03-20T07:06:46.282Z,11.98
2023-03-20T07:09:12.854Z,12.90
2023-03-20T07:11:39.549Z,13.35
2023-03-20T07:14:06.232Z,14.43
2023-03-20T07:16:59.392Z,13.32
2023-03-20T07:19:26.187Z,13.10
2023-03-20T07:22:01.808Z,14.02
2023-03-20T07:24:32.703Z,13.45
2023-03-20T07:26:59.797Z,13.50
2023-03-20T07:29:26.966Z,13.55
2023-03-20T07:31:54.778Z,13.60
2023-03-20T07:34:29.029Z,14.57
2023-03-20T07:36:56.436Z,14.77
2023-03-20T07:39:23.175Z,13.57
2023-03-20T07:42:08.743Z,14.25
2023-03-20T07:44:44.912Z,13.38
2023-03-20T07:47:12.023Z,14.25
2023-03-20T07:49:38.447Z,13.32
2023-03-20T07:52:07.249Z,14.57
2023-03-20T07:54:33.758Z,13.40
2023-03-20T07:57:00.282Z,14.77
2023-03-20T07:59:27.076Z,14.90
2023-03-20T08:01:53.556Z,14.65
2023-03-20T08:04:22.626Z,14.70
2023-03-20T08:06:49.765Z,15.98
2023-03-20T08:09:16.935Z,15.05
2023-03-20T08:11:43.693Z,14.50
2023-03-20T08:14:10.574Z,15.18
2023-03-20T08:16:37.164Z,14.60
2023-03-20T08:19:05.308Z,13.85
2023-03-20T08:21:32.790Z,14.63
2023-03-20T08:23:59.223Z,14.57
2023-03-20T08:26:26.020Z,14.75
2023-03-20T08:28:53.237Z,14.93
2023-03-20T08:31:20.214Z,11.32
2023-03-20T08:33:47.170Z,14.43
2023-03-20T08:36:15.860Z,15.38
2023-03-20T08:38:42.870Z,16.00
2023-03-20T08:41:11.137Z,15.30
2023-03-20T08:43:37.913Z,14.73
2023-03-20T08:46:04.750Z,15.18
2023-03-20T08:48:33.152Z,15.13
2023-03-20T08:50:59.817Z,14.70
2023-03-20T08:53:27.218Z,16.02
2023-03-20T08:55:54.352Z,15.07
2023-03-20T08:58:21.536Z,14.45
2023-03-20T09:00:48.012Z,15.85
2023-03-20T09:03:17.606Z,14.75
2023-03-20T09:05:45.494Z,15.20
2023-03-20T09:08:12.853Z,14.23
2023-03-20T09:10:40.711Z,13.05
2023-03-20T09:13:25.640Z,13.75
2023-03-20T09:15:53.476Z,12.80
2023-03-20T09:18:21.356Z,13.18
2023-03-20T09:20:48.619Z,12.75
2023-03-20T09:23:15.768Z,12.43
2023-03-20T09:25:42.255Z,12.77
2023-03-20T09:28:09.102Z,12.88
2023-03-20T09:30:36.345Z,12.07
2023-03-20T09:33:03.009Z,12.98
2023-03-20T09:35:29.498Z,11.90
2023-03-20T09:37:56.579Z,12.00
2023-03-20T09:40:28.868Z,12.15
2023-03-20T09:42:58.832Z,11.95
2023-03-20T09:45:41.448Z,11.65
2023-03-20T09:48:20.204Z,11.20
2023-03-20T09:50:53.805Z,11.43
2023-03-20T09:53:35.542Z,11.32
2023-03-20T09:56:02.583Z,10.18
2023-03-20T09:58:33.642Z,9.82
2023-03-20T10:01:02.558Z,10.93
2023-03-20T10:03:50.605Z,9.70
2023-03-20T10:06:18.053Z,10.52
2023-03-20T10:08:45.933Z,9.82
2023-03-20T10:11:34.227Z,10.23
2023-03-20T10:14:21.304Z,10.05
2023-03-20T10:17:13.706Z,10.38
2023-03-20T10:19:53.361Z,10.02
2023-03-20T10:22:32.779Z,9.52
2023-03-20T10:25:07.325Z,9.10
2023-03-20T10:27:41.951Z,9.27
2023-03-20T10:30:20.368Z,9.30
2023-03-20T10:33:18.914Z,8.85
2023-03-20T10:36:01.835Z,8.63
2023-03-20T10:38:49.319Z,8.32
2023-03-20T10:41:23.214Z,9.32
2023-03-20T10:43:52.745Z,9.40
2023-03-20T10:46:44.684Z,9.38
2023-03-20T10:49:35.961Z,8.82
2023-03-20T10:52:06.590Z,8.32
2023-03-20T10:54:41.994Z,9.15
2023-03-20T10:57:17.948Z,9.63
2023-03-20T10:59:49.632Z,9.73
2023-03-20T11:02:18.253Z,9.63
2023-03-20T11:04:45.039Z,9.85
2023-03-20T11:07:26.880Z,9.90
2023-03-20T11:10:05.579Z,9.93
2023-03-20T11:12:34.206Z,9.60
2023-03-20T11:15:04.907Z,9.98
2023-03-20T11:17:31.378Z,9.05
2023-03-20T11:20:05.129Z,9.38
2023-03-20T11:22:32.086Z,10.20
2023-03-20T11:25:04.227Z,10.40
2023-03-20T11:27:35.974Z,9.45
2023-03-20T11:30:06.012Z,10.57
2023-03-20T11:32:42.060Z,9.65
2023-03-20T11:35:24.000Z,10.93
2023-03-20T11:37:52.837Z,11.68
2023-03-20T11:40:34.243Z,13.50
2023-03-20T11:43:00.696Z,16.30
2023-03-20T11:45:34.396Z,14.95
2023-03-20T11:48:03.504Z,16.80
2023-03-20T11:50:42.035Z,16.85
2023-03-20T11:53:23.315Z,17.45
2023-03-20T11:56:14.718Z,16.17
2023-03-20T11:59:10.397Z,15.52
2023-03-20T12:01:44.548Z,15.40
2023-03-20T12:04:17.973Z,15.73
2023-03-20T12:07:19.470Z,15.15
2023-03-20T12:09:54.968Z,13.18
2023-03-20T12:12:43.644Z,11.75
2023-03-20T12:15:12.925Z,12.60
2023-03-20T12:17:58.261Z,11.68
2023-03-20T12:20:34.187Z,11.68
2023-03-20T12:23:14.068Z,10.90
2023-03-20T12:26:03.048Z,10.93
2023-03-20T12:28:38.524Z,10.88
2023-03-20T12:31:05.064Z,8.75
2023-03-20T12:33:42.887Z,9.32
2023-03-20T12:36:16.543Z,9.60
2023-03-20T12:38:44.098Z,9.48
2023-03-20T12:41:44.557Z,8.70
2023-03-20T12:44:20.908Z,8.95
2023-03-20T12:46:59.773Z,8.07
2023-03-20T12:49:42.976Z,8.18
2023-03-20T12:52:37.476Z,8.77
2023-03-20T12:55:29.885Z,8.00
2023-03-20T12:58:18.372Z,7.82
2023-03-20T13:01:03.757Z,7.38
2023-03-20T13:03:36.719Z,7.55
2023-03-20T13:06:30.749Z,7.45
2023-03-20T13:09:06.135Z,7.97
2023-03-20T13:11:45.872Z,7.78
2023-03-20T13:14:18.528Z,9.32
2023-03-20T13:17:03.652Z,7.95
2023-03-20T13:19:42.104Z,8.20
2023-03-20T13:22:25.506Z,7.60
2023-03-20T13:25:25.282Z,7.80
2023-03-20T13:28:01.842Z,7.55
2023-03-20T13:30:44.221Z,6.57
2023-03-20T13:33:28.547Z,7.45
2023-03-20T13:36:07.221Z,6.97
2023-03-20T13:38:38.597Z,7.00
2023-03-20T13:41:09.729Z,7.18
2023-03-20T13:43:48.409Z,7.45
2023-03-20T13:46:19.198Z,7.80
2023-03-20T13:48:46.722Z,8.15
2023-03-20T13:51:31.683Z,7.18
2023-03-20T13:54:32.335Z,8.27
2023-03-20T13:57:22.551Z,8.35
2023-03-20T14:00:05.100Z,8.10
2023-03-20T14:02:53.602Z,8.43
2023-03-20T14:05:23.393Z,7.95
2023-03-20T14:07:56.481Z,7.47
2023-03-20T14:10:23.285Z,8.05
2023-03-20T14:13:00.689Z,8.18
2023-03-20T14:15:31.621Z,8.20
2023-03-20T14:18:02.967Z,8.07
2023-03-20T14:20:41.885Z,8.23
2023-03-20T14:23:18.396Z,8.25
2023-03-20T14:25:47.716Z,8.02
2023-03-20T14:28:14.234Z,8.07
2023-03-20T14:30:53.431Z,7.75
2023-03-20T14:33:22.950Z,8.10
2023-03-20T14:36:12.348Z,7.75
2023-03-20T14:39:03.763Z,7.30
2023-03-20T14:41:47.187Z,8.38
2023-03-20T14:44:29.972Z,7.60
2023-03-20T14:47:18.998Z,7.82
2023-03-20T14:49:52.769Z,7.70
2023-03-20T14:52:34.759Z,7.22
2023-03-20T14:55:47.812Z,7.18
2023-03-20T14:58:35.770Z,6.70
2023-03-20T15:01:07.693Z,6.30
2023-03-20T15:03:36.166Z,6.55
2023-03-20T15:06:06.960Z,7.20
2023-03-20T15:08:50.826Z,6.75
2023-03-20T15:11:18.052Z,6.50
2023-03-20T15:13:46.114Z,6.30
2023-03-20T15:16:15.031Z,6.18
2023-03-20T15:18:52.589Z,6.63
2023-03-20T15:21:23.403Z,6.63
2023-03-20T15:23:49.879Z,6.30
2023-03-20T15:26:19.662Z,6.20
2023-03-20T15:28:47.433Z,6.88
2023-03-20T15:31:27.453Z,6.90
2023-03-20T15:33:55.634Z,8.07
2023-03-20T15:36:30.164Z,7.35
2023-03-20T15:39:16.761Z,7.50
2023-03-20T15:41:51.383Z,7.18
2023-03-20T15:44:25.588Z,7.50
2023-03-20T15:47:00.425Z,7.25
2023-03-20T15:49:28.068Z,7.57
2023-03-20T15:51:59.472Z,7.90
2023-03-20T15:54:26.300Z,7.57
2023-03-20T15:56:56.025Z,8.25
2023-03-20T15:59:27.578Z,8.20
2023-03-20T16:01:57.887Z,7.57
2023-03-20T16:04:26.078Z,8.25
2023-03-20T16:06:55.776Z,8.57
2023-03-20T16:09:22.692Z,8.10
2023-03-20T16:12:02.650Z,8.63
2023-03-20T16:14:32.548Z,9.02
2023-03-20T16:17:01.576Z,8.65
2023-03-20T16:19:29.163Z,8.57
2023-03-20T16:21:59.366Z,9.07
2023-03-20T16:24:35.415Z,9.68
2023-03-20T16:27:07.792Z,11.15
2023-03-20T16:29:35.812Z,10.20
2023-03-20T16:32:12.024Z,10.20
2023-03-20T16:34:39.626Z,9.82
2023-03-20T16:37:27.620Z,10.82
2023-03-20T16:40:16.136Z,9.80
2023-03-20T16:42:43.778Z,9.57
2023-03-20T16:45:30.251Z,9.75
2023-03-20T16:48:23.992Z,9.63
2023-03-20T16:50:57.163Z,9.82
2023-03-20T16:53:24.893Z,9.48
2023-03-20T16:55:55.578Z,9.27
2023-03-20T16:58:25.610Z,8.85
2023-03-20T17:01:04.863Z,8.95
2023-03-20T17:03:43.659Z,8.48
2023-03-20T17:06:19.630Z,9.57
2023-03-20T17:08:50.179Z,8.20
2023-03-20T17:11:32.924Z,8.45
2023-03-20T17:13:59.992Z,8.57
2023-03-20T17:16:26.938Z,7.95
2023-03-20T17:19:07.305Z,8.32
2023-03-20T17:21:34.338Z,8.27
2023-03-20T17:24:00.824Z,8.02
2023-03-20T17:26:27.340Z,7.82
2023-03-20T17:28:54.700Z,8.10
2023-03-20T17:31:21.278Z,7.22
2023-03-20T17:33:47.860Z,7.60
2023-03-20T17:36:26.352Z,7.82
2023-03-20T17:38:53.771Z,8.23
2023-03-20T17:41:21.350Z,8.10
2023-03-20T17:43:48.023Z,8.40
2023-03-20T17:46:27.213Z,9.52
2023-03-20T17:49:01.661Z,7.90
2023-03-20T17:51:28.554Z,8.88
2023-03-20T17:53:57.719Z,8.15
2023-03-20T17:56:32.480Z,7.25
2023-03-20T17:59:00.354Z,7.93
2023-03-20T18:01:28.423Z,7.72
2023-03-20T18:03:56.514Z,8.27
2023-03-20T18:06:31.429Z,8.10
2023-03-20T18:08:59.983Z,7.68
2023-03-20T18:11:27.166Z,8.10
2023-03-20T18:13:53.870Z,7.15
2023-03-20T18:16:23.407Z,8.00
2023-03-20T18:18:50.904Z,7.15
2023-03-20T18:21:17.709Z,7.13
2023-03-20T18:23:48.212Z,7.28
2023-03-20T18:26:23.804Z,6.82
2023-03-20T18:28:52.209Z,6.00
2023-03-20T18:31:19.629Z,6.50
2023-03-20T18:33:48.009Z,5.68
2023-03-20T18:36:20.585Z,6.13
2023-03-20T18:38:47.823Z,5.13
2023-03-20T18:41:14.867Z,6.13
2023-03-20T18:43:42.271Z,5.90
2023-03-20T18:46:17.526Z,5.28
2023-03-20T18:48:44.578Z,5.20
2023-03-20T18:51:11.695Z,6.35
2023-03-20T18:53:40.713Z,5.88
2023-03-20T18:56:14.041Z,5.75
2023-03-20T18:58:40.854Z,6.38
2023-03-20T19:01:07.459Z,5.75
2023-03-20T19:03:39.196Z,5.60
2023-03-20T19:06:10.555Z,5.50
2023-03-20T19:08:38.739Z,5.30
2023-03-20T19:11:05.918Z,5.28
2023-03-20T19:13:32.379Z,5.65
2023-03-20T19:15:58.984Z,5.70
2023-03-20T19:18:26.905Z,6.20
2023-03-20T19:20:56.093Z,5.63
2023-03-20T19:23:24.435Z,6.25
2023-03-20T19:25:53.099Z,6.18
2023-03-20T19:28:34.540Z,5.47
2023-03-20T19:31:05.032Z,4.85
2023-03-20T19:33:33.201Z,4.93
2023-03-20T19:36:03.312Z,5.60
2023-03-20T19:38:31.284Z,5.45
2023-03-20T19:40:59.249Z,4.78
2023-03-20T19:43:25.995Z,5.25
2023-03-20T19:45:58.014Z,4.93
2023-03-20T19:48:27.919Z,5.13
2023-03-20T19:50:56.411Z,5.35
2023-03-20T19:53:27.677Z,4.65
2023-03-20T19:55:55.430Z,4.93
2023-03-20T19:58:22.595Z,4.30
2023-03-20T20:00:59.176Z,4.68
2023-03-20T20:03:27.260Z,4.70
2023-03-20T20:05:54.454Z,4.40
2023-03-20T20:08:41.363Z,4.20
2023-03-20T20:11:09.764Z,4.22
2023-03-20T20:13:47.146Z,4.30
2023-03-20T20:16:22.802Z,4.60
2023-03-20T20:18:49.345Z,4.43
2023-03-20T20:24:03.203Z,4.45
2023-03-20T20:26:31.247Z,4.25
2023-03-20T20:29:01.908Z,4.80
2023-03-20T20:31:31.862Z,4.50
2023-03-20T20:34:34.890Z,4.75
2023-03-20T20:39:31.923Z,4.50
2023-03-20T20:41:58.407Z,5.00
2023-03-20T20:44:24.871Z,4.78
2023-03-20T20:46:51.601Z,5.32
2023-03-20T20:49:19.774Z,5.22
2023-03-20T20:51:47.428Z,5.60
2023-03-20T20:54:14.262Z,5.47
2023-03-20T20:56:41.587Z,5.38
2023-03-20T20:59:08.213Z,6.40
2023-03-20T21:01:34.986Z,5.70
2023-03-20T21:04:02.349Z,6.05
2023-03-20T21:06:57.987Z,6.15
2023-03-20T21:09:15.350Z,5.93
2023-03-20T21:11:41.853Z,6.47
2023-03-20T21:14:08.389Z,6.72
2023-03-20T21:16:35.416Z,6.40
2023-03-20T21:19:01.937Z,7.32
2023-03-20T21:21:28.437Z,7.15
2023-03-20T21:23:55.472Z,6.47
2023-03-20T21:26:22.319Z,6.65
2023-03-20T21:28:48.887Z,7.15
2023-03-20T21:31:26.764Z,7.35
2023-03-20T21:33:55.465Z,8.07
2023-03-20T21:36:23.417Z,8.00
2023-03-20T21:39:08.679Z,8.15
2023-03-20T21:41:37.840Z,8.55
2023-03-20T21:44:06.451Z,7.70
2023-03-20T22:03:30.854Z,8.60
2023-03-20T22:07:18.735Z,7.85
2023-03-20T22:12:43.638Z,8.35
2023-03-20T22:15:33.924Z,8.48
2023-03-20T22:17:59.859Z,8.68
2023-03-20T22:23:45.550Z,9.48
2023-03-20T22:27:01.556Z,9.60
2023-03-20T22:29:35.890Z,9.07
2023-03-20T22:37:48.227Z,9.45
2023-03-20T22:40:42.060Z,9.27
2023-03-20T22:45:28.872Z,8.73
2023-03-20T22:48:01.460Z,9.77
2023-03-20T22:50:28.275Z,10.57
2023-03-20T22:52:55.615Z,10.63
2023-03-20T22:55:24.927Z,11.35
2023-03-20T22:58:05.938Z,10.35
2023-03-20T23:00:35.007Z,10.60
2023-03-20T23:03:15.393Z,10.15
2023-03-20T23:05:47.202Z,11.07
2023-03-20T23:08:14.079Z,12.30
2023-03-20T23:10:45.802Z,11.57
2023-03-20T23:13:12.624Z,10.52
2023-03-20T23:15:39.464Z,10.10
2023-03-20T23:18:06.287Z,11.48
2023-03-20T23:20:32.872Z,11.43
2023-03-20T23:22:59.364Z,10.38
2023-03-20T23:25:38.278Z,10.50
2023-03-20T23:28:06.756Z,10.63
2023-03-20T23:30:41.921Z,10.52
2023-03-20T23:33:10.606Z,10.50
2023-03-20T23:35:37.126Z,10.73
2023-03-20T23:38:04.132Z,11.13
2023-03-20T23:40:30.996Z,10.93
2023-03-20T23:42:57.547Z,11.20
2023-03-20T23:45:24.082Z,10.65
2023-03-20T23:47:50.977Z,10.82
2023-03-20T23:50:28.848Z,12.10
2023-03-20T23:53:09.416Z,11.48
2023-03-20T23:55:40.772Z,11.43
2023-03-20T23:58:07.565Z,11.93
